sensor_id;sensor_type;location;lat;lon;timestamp;P1;durP1;ratioP1;P2;durP2;ratioP2
65558;SDS011;52203;51.998;5.140;2023-07-16T00:00:27;4.53;;;1.80;;
65558;SDS011;52203;51.998;5.140;2023-07-16T00:02:52;4.57;;;1.92;;
65558;SDS011;52203;51.998;5.140;2023-07-16T00:05:18;7.93;;;2.47;;
65558;SDS011;52203;51.998;5.140;2023-07-16T00:07:44;6.90;;;2.33;;
65558;SDS011;52203;51.998;5.140;2023-07-16T00:10:09;7.13;;;2.13;;
65558;SDS011;52203;51.998;5.140;2023-07-16T00:12:35;7.82;;;2.22;;
65558;SDS011;52203;51.998;5.140;2023-07-16T00:15:01;6.53;;;1.95;;
65558;SDS011;52203;51.998;5.140;2023-07-16T00:17:26;8.40;;;2.20;;
65558;SDS011;52203;51.998;5.140;2023-07-16T00:19:52;6.95;;;2.33;;
65558;SDS011;52203;51.998;5.140;2023-07-16T00:22:17;6.07;;;2.08;;
65558;SDS011;52203;51.998;5.140;2023-07-16T00:24:43;9.07;;;2.35;;
65558;SDS011;52203;51.998;5.140;2023-07-16T00:27:08;6.07;;;1.95;;
65558;SDS011;52203;51.998;5.140;2023-07-16T00:29:34;9.05;;;2.50;;
65558;SDS011;52203;51.998;5.140;2023-07-16T00:32:00;6.68;;;1.98;;
65558;SDS011;52203;51.998;5.140;2023-07-16T00:34:25;6.50;;;2.13;;
65558;SDS011;52203;51.998;5.140;2023-07-16T00:36:51;8.18;;;2.10;;
65558;SDS011;52203;51.998;5.140;2023-07-16T00:39:17;6.47;;;2.25;;
65558;SDS011;52203;51.998;5.140;2023-07-16T00:41:42;7.40;;;2.20;;
65558;SDS011;52203;51.998;5.140;2023-07-16T00:44:08;9.70;;;2.33;;
65558;SDS011;52203;51.998;5.140;2023-07-16T00:46:33;8.80;;;1.92;;
65558;SDS011;52203;51.998;5.140;2023-07-16T00:48:59;5.38;;;1.80;;
65558;SDS011;52203;51.998;5.140;2023-07-16T00:51:25;8.18;;;2.50;;
65558;SDS011;52203;51.998;5.140;2023-07-16T00:53:51;8.77;;;2.33;;
65558;SDS011;52203;51.998;5.140;2023-07-16T00:56:17;8.52;;;2.30;;
65558;SDS011;52203;51.998;5.140;2023-07-16T00:58:42;7.05;;;2.97;;
65558;SDS011;52203;51.998;5.140;2023-07-16T01:01:08;9.00;;;2.30;;
65558;SDS011;52203;51.998;5.140;2023-07-16T01:03:34;6.70;;;2.28;;
65558;SDS011;52203;51.998;5.140;2023-07-16T01:08:46;7.75;;;2.50;;
65558;SDS011;52203;51.998;5.140;2023-07-16T01:11:17;6.43;;;2.42;;
65558;SDS011;52203;51.998;5.140;2023-07-16T01:13:44;6.10;;;2.60;;
65558;SDS011;52203;51.998;5.140;2023-07-16T01:16:23;10.75;;;2.33;;
65558;SDS011;52203;51.998;5.140;2023-07-16T01:18:50;6.90;;;2.42;;
65558;SDS011;52203;51.998;5.140;2023-07-16T01:21:17;7.03;;;2.47;;
65558;SDS011;52203;51.998;5.140;2023-07-16T01:29:23;10.18;;;2.95;;
65558;SDS011;52203;51.998;5.140;2023-07-16T01:32:03;5.90;;;2.40;;
65558;SDS011;52203;51.998;5.140;2023-07-16T01:34:31;7.25;;;2.78;;
65558;SDS011;52203;51.998;5.140;2023-07-16T01:37:02;4.55;;;2.47;;
65558;SDS011;52203;51.998;5.140;2023-07-16T01:39:28;10.70;;;3.50;;
65558;SDS011;52203;51.998;5.140;2023-07-16T01:41:56;7.32;;;2.78;;
65558;SDS011;52203;51.998;5.140;2023-07-16T01:44:21;10.30;;;2.70;;
65558;SDS011;52203;51.998;5.140;2023-07-16T01:46:51;9.45;;;2.88;;
65558;SDS011;52203;51.998;5.140;2023-07-16T01:49:30;8.07;;;3.08;;
65558;SDS011;52203;51.998;5.140;2023-07-16T01:51:56;9.95;;;3.17;;
65558;SDS011;52203;51.998;5.140;2023-07-16T01:54:21;11.07;;;3.10;;
65558;SDS011;52203;51.998;5.140;2023-07-16T01:56:47;7.32;;;2.72;;
65558;SDS011;52203;51.998;5.140;2023-07-16T01:59:13;10.95;;;2.95;;
65558;SDS011;52203;51.998;5.140;2023-07-16T02:01:38;7.80;;;2.80;;
65558;SDS011;52203;51.998;5.140;2023-07-16T02:04:04;7.93;;;3.53;;
65558;SDS011;52203;51.998;5.140;2023-07-16T02:06:29;6.65;;;2.90;;
65558;SDS011;52203;51.998;5.140;2023-07-16T02:08:55;8.70;;;3.25;;
65558;SDS011;52203;51.998;5.140;2023-07-16T02:11:20;10.80;;;3.45;;
65558;SDS011;52203;51.998;5.140;2023-07-16T02:13:47;8.38;;;3.17;;
65558;SDS011;52203;51.998;5.140;2023-07-16T02:16:13;8.05;;;2.85;;
65558;SDS011;52203;51.998;5.140;2023-07-16T02:18:39;9.45;;;3.25;;
65558;SDS011;52203;51.998;5.140;2023-07-16T02:21:04;8.88;;;3.42;;
65558;SDS011;52203;51.998;5.140;2023-07-16T02:23:30;8.93;;;3.25;;
65558;SDS011;52203;51.998;5.140;2023-07-16T02:25:55;11.02;;;3.22;;
65558;SDS011;52203;51.998;5.140;2023-07-16T02:28:21;11.18;;;3.42;;
65558;SDS011;52203;51.998;5.140;2023-07-16T02:30:48;10.60;;;3.40;;
65558;SDS011;52203;51.998;5.140;2023-07-16T02:33:14;10.20;;;3.65;;
65558;SDS011;52203;51.998;5.140;2023-07-16T02:35:40;11.40;;;3.45;;
65558;SDS011;52203;51.998;5.140;2023-07-16T02:38:05;8.48;;;2.80;;
65558;SDS011;52203;51.998;5.140;2023-07-16T02:40:31;8.52;;;3.17;;
65558;SDS011;52203;51.998;5.140;2023-07-16T02:42:56;10.68;;;2.78;;
65558;SDS011;52203;51.998;5.140;2023-07-16T02:45:22;9.40;;;3.05;;
65558;SDS011;52203;51.998;5.140;2023-07-16T02:47:47;6.40;;;3.03;;
65558;SDS011;52203;51.998;5.140;2023-07-16T02:50:13;8.82;;;2.70;;
65558;SDS011;52203;51.998;5.140;2023-07-16T02:52:39;8.40;;;2.78;;
65558;SDS011;52203;51.998;5.140;2023-07-16T02:55:04;8.52;;;3.20;;
65558;SDS011;52203;51.998;5.140;2023-07-16T02:57:30;6.72;;;2.92;;
65558;SDS011;52203;51.998;5.140;2023-07-16T02:59:55;9.52;;;3.03;;
65558;SDS011;52203;51.998;5.140;2023-07-16T03:02:21;8.70;;;3.00;;
65558;SDS011;52203;51.998;5.140;2023-07-16T03:04:46;8.68;;;2.80;;
65558;SDS011;52203;51.998;5.140;2023-07-16T03:07:12;7.88;;;2.80;;
65558;SDS011;52203;51.998;5.140;2023-07-16T03:09:37;7.60;;;2.80;;
65558;SDS011;52203;51.998;5.140;2023-07-16T03:12:03;8.95;;;3.03;;
65558;SDS011;52203;51.998;5.140;2023-07-16T03:14:29;11.32;;;3.45;;
65558;SDS011;52203;51.998;5.140;2023-07-16T03:16:55;11.30;;;2.90;;
65558;SDS011;52203;51.998;5.140;2023-07-16T03:19:20;8.85;;;2.85;;
65558;SDS011;52203;51.998;5.140;2023-07-16T03:21:46;9.68;;;3.05;;
65558;SDS011;52203;51.998;5.140;2023-07-16T03:24:17;8.38;;;3.05;;
65558;SDS011;52203;51.998;5.140;2023-07-16T03:26:42;6.22;;;2.75;;
65558;SDS011;52203;51.998;5.140;2023-07-16T03:29:08;7.47;;;3.13;;
65558;SDS011;52203;51.998;5.140;2023-07-16T03:31:34;8.68;;;2.92;;
65558;SDS011;52203;51.998;5.140;2023-07-16T03:33:59;7.40;;;2.63;;
65558;SDS011;52203;51.998;5.140;2023-07-16T03:36:25;7.90;;;2.83;;
65558;SDS011;52203;51.998;5.140;2023-07-16T03:38:50;8.57;;;2.78;;
65558;SDS011;52203;51.998;5.140;2023-07-16T03:41:16;8.98;;;3.05;;
65558;SDS011;52203;51.998;5.140;2023-07-16T03:43:42;11.93;;;3.17;;
65558;SDS011;52203;51.998;5.140;2023-07-16T03:46:07;8.05;;;2.78;;
65558;SDS011;52203;51.998;5.140;2023-07-16T03:48:33;12.18;;;3.53;;
65558;SDS011;52203;51.998;5.140;2023-07-16T03:50:59;8.05;;;2.92;;
65558;SDS011;52203;51.998;5.140;2023-07-16T03:53:25;10.00;;;3.58;;
65558;SDS011;52203;51.998;5.140;2023-07-16T03:55:50;11.25;;;3.35;;
65558;SDS011;52203;51.998;5.140;2023-07-16T03:58:16;9.50;;;3.30;;
65558;SDS011;52203;51.998;5.140;2023-07-16T04:00:41;13.23;;;3.42;;
65558;SDS011;52203;51.998;5.140;2023-07-16T04:03:09;8.25;;;3.30;;
65558;SDS011;52203;51.998;5.140;2023-07-16T04:05:34;9.80;;;3.63;;
65558;SDS011;52203;51.998;5.140;2023-07-16T04:08:00;8.25;;;3.50;;
65558;SDS011;52203;51.998;5.140;2023-07-16T04:10:25;9.07;;;3.75;;
65558;SDS011;52203;51.998;5.140;2023-07-16T04:12:51;7.45;;;3.55;;
65558;SDS011;52203;51.998;5.140;2023-07-16T04:15:16;6.72;;;3.72;;
65558;SDS011;52203;51.998;5.140;2023-07-16T04:17:42;8.70;;;3.40;;
65558;SDS011;52203;51.998;5.140;2023-07-16T04:20:07;9.77;;;3.95;;
65558;SDS011;52203;51.998;5.140;2023-07-16T04:22:34;9.48;;;3.35;;
65558;SDS011;52203;51.998;5.140;2023-07-16T04:25:00;7.68;;;3.60;;
65558;SDS011;52203;51.998;5.140;2023-07-16T04:27:26;8.13;;;3.17;;
65558;SDS011;52203;51.998;5.140;2023-07-16T04:29:51;10.23;;;3.80;;
65558;SDS011;52203;51.998;5.140;2023-07-16T04:32:17;11.32;;;3.78;;
65558;SDS011;52203;51.998;5.140;2023-07-16T04:34:43;11.90;;;3.40;;
65558;SDS011;52203;51.998;5.140;2023-07-16T04:37:09;10.10;;;3.50;;
65558;SDS011;52203;51.998;5.140;2023-07-16T04:39:34;8.35;;;3.75;;
65558;SDS011;52203;51.998;5.140;2023-07-16T04:42:00;9.38;;;4.03;;
65558;SDS011;52203;51.998;5.140;2023-07-16T04:44:25;10.45;;;3.53;;
65558;SDS011;52203;51.998;5.140;2023-07-16T04:46:51;9.18;;;3.78;;
65558;SDS011;52203;51.998;5.140;2023-07-16T04:49:16;7.65;;;3.75;;
65558;SDS011;52203;51.998;5.140;2023-07-16T04:51:42;9.15;;;4.20;;
65558;SDS011;52203;51.998;5.140;2023-07-16T04:54:08;8.90;;;3.42;;
65558;SDS011;52203;51.998;5.140;2023-07-16T04:56:34;9.40;;;3.35;;
65558;SDS011;52203;51.998;5.140;2023-07-16T04:59:00;9.77;;;3.92;;
65558;SDS011;52203;51.998;5.140;2023-07-16T05:01:25;10.43;;;3.78;;
65558;SDS011;52203;51.998;5.140;2023-07-16T05:03:52;11.88;;;4.05;;
65558;SDS011;52203;51.998;5.140;2023-07-16T05:06:17;6.00;;;3.22;;
65558;SDS011;52203;51.998;5.140;2023-07-16T05:08:43;9.48;;;3.92;;
65558;SDS011;52203;51.998;5.140;2023-07-16T05:11:09;8.90;;;3.42;;
65558;SDS011;52203;51.998;5.140;2023-07-16T05:13:34;9.60;;;4.18;;
65558;SDS011;52203;51.998;5.140;2023-07-16T05:16:00;10.45;;;4.15;;
65558;SDS011;52203;51.998;5.140;2023-07-16T05:18:26;11.18;;;3.70;;
65558;SDS011;52203;51.998;5.140;2023-07-16T05:20:51;9.02;;;4.18;;
65558;SDS011;52203;51.998;5.140;2023-07-16T05:23:17;8.20;;;4.13;;
65558;SDS011;52203;51.998;5.140;2023-07-16T05:25:46;7.63;;;4.00;;
65558;SDS011;52203;51.998;5.140;2023-07-16T05:28:12;9.98;;;4.25;;
65558;SDS011;52203;51.998;5.140;2023-07-16T05:30:38;9.27;;;4.47;;
65558;SDS011;52203;51.998;5.140;2023-07-16T05:33:04;10.40;;;4.28;;
65558;SDS011;52203;51.998;5.140;2023-07-16T05:35:29;7.82;;;3.67;;
65558;SDS011;52203;51.998;5.140;2023-07-16T05:37:55;9.52;;;4.10;;
65558;SDS011;52203;51.998;5.140;2023-07-16T05:40:20;10.35;;;4.03;;
65558;SDS011;52203;51.998;5.140;2023-07-16T05:42:46;7.97;;;3.72;;
65558;SDS011;52203;51.998;5.140;2023-07-16T05:45:11;11.95;;;4.32;;
65558;SDS011;52203;51.998;5.140;2023-07-16T05:47:37;6.85;;;3.65;;
65558;SDS011;52203;51.998;5.140;2023-07-16T05:50:03;7.63;;;4.03;;
65558;SDS011;52203;51.998;5.140;2023-07-16T05:52:29;11.63;;;4.53;;
65558;SDS011;52203;51.998;5.140;2023-07-16T05:54:55;11.38;;;4.65;;
65558;SDS011;52203;51.998;5.140;2023-07-16T05:57:20;8.48;;;4.10;;
65558;SDS011;52203;51.998;5.140;2023-07-16T05:59:46;7.80;;;4.22;;
65558;SDS011;52203;51.998;5.140;2023-07-16T06:02:11;8.60;;;4.22;;
65558;SDS011;52203;51.998;5.140;2023-07-16T06:04:37;7.50;;;4.18;;
65558;SDS011;52203;51.998;5.140;2023-07-16T06:07:02;8.80;;;3.92;;
65558;SDS011;52203;51.998;5.140;2023-07-16T06:09:29;12.73;;;4.22;;
65558;SDS011;52203;51.998;5.140;2023-07-16T06:11:54;12.13;;;3.97;;
65558;SDS011;52203;51.998;5.140;2023-07-16T06:14:20;10.43;;;4.28;;
65558;SDS011;52203;51.998;5.140;2023-07-16T06:16:45;8.32;;;3.95;;
65558;SDS011;52203;51.998;5.140;2023-07-16T06:19:11;7.38;;;4.07;;
65558;SDS011;52203;51.998;5.140;2023-07-16T06:21:36;10.13;;;4.30;;
65558;SDS011;52203;51.998;5.140;2023-07-16T06:24:02;8.95;;;4.68;;
65558;SDS011;52203;51.998;5.140;2023-07-16T06:26:28;9.60;;;4.43;;
65558;SDS011;52203;51.998;5.140;2023-07-16T06:28:55;10.93;;;4.68;;
65558;SDS011;52203;51.998;5.140;2023-07-16T06:31:20;9.70;;;4.45;;
65558;SDS011;52203;51.998;5.140;2023-07-16T06:33:46;12.20;;;4.40;;
65558;SDS011;52203;51.998;5.140;2023-07-16T06:36:12;9.85;;;4.13;;
65558;SDS011;52203;51.998;5.140;2023-07-16T06:38:38;10.15;;;4.72;;
65558;SDS011;52203;51.998;5.140;2023-07-16T06:41:03;10.40;;;4.30;;
65558;SDS011;52203;51.998;5.140;2023-07-16T06:43:29;10.93;;;4.07;;
65558;SDS011;52203;51.998;5.140;2023-07-16T06:45:55;8.45;;;4.15;;
65558;SDS011;52203;51.998;5.140;2023-07-16T06:48:20;9.70;;;4.43;;
65558;SDS011;52203;51.998;5.140;2023-07-16T06:50:46;8.00;;;4.20;;
65558;SDS011;52203;51.998;5.140;2023-07-16T06:53:11;9.52;;;4.57;;
65558;SDS011;52203;51.998;5.140;2023-07-16T06:55:37;10.45;;;4.43;;
65558;SDS011;52203;51.998;5.140;2023-07-16T06:58:03;13.30;;;4.20;;
65558;SDS011;52203;51.998;5.140;2023-07-16T07:00:28;9.77;;;4.47;;
65558;SDS011;52203;51.998;5.140;2023-07-16T07:02:54;9.15;;;3.97;;
65558;SDS011;52203;51.998;5.140;2023-07-16T07:05:20;10.68;;;3.90;;
65558;SDS011;52203;51.998;5.140;2023-07-16T07:07:46;9.63;;;4.20;;
65558;SDS011;52203;51.998;5.140;2023-07-16T07:10:12;11.10;;;4.53;;
65558;SDS011;52203;51.998;5.140;2023-07-16T07:12:38;8.88;;;4.45;;
65558;SDS011;52203;51.998;5.140;2023-07-16T07:15:05;10.70;;;4.43;;
65558;SDS011;52203;51.998;5.140;2023-07-16T07:17:31;7.82;;;3.67;;
65558;SDS011;52203;51.998;5.140;2023-07-16T07:19:57;10.65;;;4.00;;
65558;SDS011;52203;51.998;5.140;2023-07-16T07:22:22;8.52;;;4.32;;
65558;SDS011;52203;51.998;5.140;2023-07-16T07:24:48;11.38;;;4.43;;
65558;SDS011;52203;51.998;5.140;2023-07-16T07:27:14;12.20;;;4.65;;
65558;SDS011;52203;51.998;5.140;2023-07-16T07:29:40;9.45;;;4.07;;
65558;SDS011;52203;51.998;5.140;2023-07-16T07:32:05;9.75;;;4.38;;
65558;SDS011;52203;51.998;5.140;2023-07-16T07:34:31;10.02;;;4.40;;
65558;SDS011;52203;51.998;5.140;2023-07-16T07:36:57;7.75;;;4.40;;
65558;SDS011;52203;51.998;5.140;2023-07-16T07:39:22;12.30;;;4.75;;
65558;SDS011;52203;51.998;5.140;2023-07-16T07:41:48;10.80;;;4.30;;
65558;SDS011;52203;51.998;5.140;2023-07-16T07:44:14;10.07;;;4.05;;
65558;SDS011;52203;51.998;5.140;2023-07-16T07:46:39;14.27;;;5.10;;
65558;SDS011;52203;51.998;5.140;2023-07-16T07:49:05;11.50;;;4.55;;
65558;SDS011;52203;51.998;5.140;2023-07-16T07:51:30;10.50;;;4.40;;
65558;SDS011;52203;51.998;5.140;2023-07-16T07:53:56;10.60;;;4.32;;
65558;SDS011;52203;51.998;5.140;2023-07-16T07:56:21;12.23;;;4.20;;
65558;SDS011;52203;51.998;5.140;2023-07-16T07:58:47;9.40;;;4.50;;
65558;SDS011;52203;51.998;5.140;2023-07-16T08:01:13;9.57;;;4.40;;
65558;SDS011;52203;51.998;5.140;2023-07-16T08:03:38;13.13;;;5.43;;
65558;SDS011;52203;51.998;5.140;2023-07-16T08:06:04;11.07;;;4.70;;
65558;SDS011;52203;51.998;5.140;2023-07-16T08:08:29;8.90;;;4.20;;
65558;SDS011;52203;51.998;5.140;2023-07-16T08:10:55;10.60;;;4.47;;
65558;SDS011;52203;51.998;5.140;2023-07-16T08:13:21;9.02;;;4.18;;
65558;SDS011;52203;51.998;5.140;2023-07-16T08:15:46;14.02;;;4.85;;
65558;SDS011;52203;51.998;5.140;2023-07-16T08:18:13;11.43;;;4.65;;
65558;SDS011;52203;51.998;5.140;2023-07-16T08:20:38;9.95;;;4.80;;
65558;SDS011;52203;51.998;5.140;2023-07-16T08:23:06;12.95;;;5.18;;
65558;SDS011;52203;51.998;5.140;2023-07-16T08:25:31;10.73;;;4.45;;
65558;SDS011;52203;51.998;5.140;2023-07-16T08:27:57;14.70;;;5.03;;
65558;SDS011;52203;51.998;5.140;2023-07-16T08:30:22;14.65;;;4.68;;
65558;SDS011;52203;51.998;5.140;2023-07-16T08:32:48;15.55;;;4.72;;
65558;SDS011;52203;51.998;5.140;2023-07-16T08:35:15;11.30;;;5.35;;
65558;SDS011;52203;51.998;5.140;2023-07-16T08:37:44;8.32;;;4.60;;
65558;SDS011;52203;51.998;5.140;2023-07-16T08:40:11;14.32;;;5.20;;
65558;SDS011;52203;51.998;5.140;2023-07-16T08:42:37;10.38;;;4.80;;
65558;SDS011;52203;51.998;5.140;2023-07-16T08:45:06;11.88;;;5.00;;
65558;SDS011;52203;51.998;5.140;2023-07-16T08:47:34;10.15;;;4.95;;
65558;SDS011;52203;51.998;5.140;2023-07-16T08:50:01;10.02;;;4.43;;
65558;SDS011;52203;51.998;5.140;2023-07-16T08:52:27;13.70;;;5.22;;
65558;SDS011;52203;51.998;5.140;2023-07-16T08:54:53;12.15;;;4.75;;
65558;SDS011;52203;51.998;5.140;2023-07-16T08:57:19;10.50;;;4.30;;
65558;SDS011;52203;51.998;5.140;2023-07-16T08:59:50;8.90;;;4.47;;
65558;SDS011;52203;51.998;5.140;2023-07-16T09:02:19;10.60;;;4.32;;
65558;SDS011;52203;51.998;5.140;2023-07-16T09:04:48;11.18;;;4.57;;
65558;SDS011;52203;51.998;5.140;2023-07-16T09:07:18;9.98;;;4.40;;
65558;SDS011;52203;51.998;5.140;2023-07-16T09:09:43;10.73;;;5.20;;
65558;SDS011;52203;51.998;5.140;2023-07-16T09:12:23;7.75;;;4.13;;
65558;SDS011;52203;51.998;5.140;2023-07-16T09:14:49;11.93;;;4.75;;
65558;SDS011;52203;51.998;5.140;2023-07-16T09:17:19;10.30;;;4.68;;
65558;SDS011;52203;51.998;5.140;2023-07-16T09:19:47;10.23;;;4.45;;
65558;SDS011;52203;51.998;5.140;2023-07-16T09:22:12;11.68;;;4.70;;
65558;SDS011;52203;51.998;5.140;2023-07-16T09:24:38;11.07;;;4.53;;
65558;SDS011;52203;51.998;5.140;2023-07-16T09:27:03;10.82;;;4.45;;
65558;SDS011;52203;51.998;5.140;2023-07-16T09:29:29;9.40;;;4.60;;
65558;SDS011;52203;51.998;5.140;2023-07-16T09:32:01;8.55;;;4.22;;
65558;SDS011;52203;51.998;5.140;2023-07-16T09:34:28;10.77;;;5.03;;
65558;SDS011;52203;51.998;5.140;2023-07-16T09:36:54;11.32;;;4.43;;
65558;SDS011;52203;51.998;5.140;2023-07-16T09:39:24;10.55;;;4.95;;
65558;SDS011;52203;51.998;5.140;2023-07-16T09:41:51;9.35;;;4.60;;
65558;SDS011;52203;51.998;5.140;2023-07-16T09:44:17;13.02;;;4.80;;
65558;SDS011;52203;51.998;5.140;2023-07-16T09:46:44;8.95;;;4.78;;
65558;SDS011;52203;51.998;5.140;2023-07-16T09:49:10;10.65;;;4.82;;
65558;SDS011;52203;51.998;5.140;2023-07-16T09:51:37;8.88;;;4.30;;
65558;SDS011;52203;51.998;5.140;2023-07-16T09:54:04;9.88;;;4.82;;
65558;SDS011;52203;51.998;5.140;2023-07-16T09:56:35;9.85;;;4.35;;
65558;SDS011;52203;51.998;5.140;2023-07-16T09:59:06;8.88;;;4.70;;
65558;SDS011;52203;51.998;5.140;2023-07-16T10:01:36;8.65;;;4.60;;
65558;SDS011;52203;51.998;5.140;2023-07-16T10:04:13;7.18;;;4.20;;
65558;SDS011;52203;51.998;5.140;2023-07-16T10:07:01;10.70;;;4.80;;
65558;SDS011;52203;51.998;5.140;2023-07-16T10:09:40;12.50;;;4.55;;
65558;SDS011;52203;51.998;5.140;2023-07-16T10:12:16;7.97;;;4.03;;
65558;SDS011;52203;51.998;5.140;2023-07-16T10:14:44;10.55;;;4.32;;
65558;SDS011;52203;51.998;5.140;2023-07-16T10:17:14;11.20;;;4.38;;
65558;SDS011;52203;51.998;5.140;2023-07-16T10:23:20;8.25;;;3.95;;
65558;SDS011;52203;51.998;5.140;2023-07-16T10:26:06;9.25;;;3.85;;
65558;SDS011;52203;51.998;5.140;2023-07-16T10:28:35;12.13;;;4.85;;
65558;SDS011;52203;51.998;5.140;2023-07-16T10:31:02;8.77;;;4.63;;
65558;SDS011;52203;51.998;5.140;2023-07-16T10:33:28;9.23;;;4.57;;
65558;SDS011;52203;51.998;5.140;2023-07-16T10:35:55;8.43;;;4.28;;
65558;SDS011;52203;51.998;5.140;2023-07-16T10:38:22;10.77;;;4.25;;
65558;SDS011;52203;51.998;5.140;2023-07-16T10:40:47;11.82;;;4.25;;
65558;SDS011;52203;51.998;5.140;2023-07-16T10:43:13;10.10;;;4.35;;
65558;SDS011;52203;51.998;5.140;2023-07-16T10:45:39;8.45;;;4.28;;
65558;SDS011;52203;51.998;5.140;2023-07-16T10:48:05;11.65;;;4.78;;
65558;SDS011;52203;51.998;5.140;2023-07-16T10:50:34;9.30;;;4.20;;
65558;SDS011;52203;51.998;5.140;2023-07-16T10:53:00;7.20;;;3.78;;
65558;SDS011;52203;51.998;5.140;2023-07-16T10:55:27;9.00;;;3.60;;
65558;SDS011;52203;51.998;5.140;2023-07-16T10:57:54;9.23;;;3.60;;
65558;SDS011;52203;51.998;5.140;2023-07-16T11:00:21;6.78;;;3.30;;
65558;SDS011;52203;51.998;5.140;2023-07-16T11:02:48;6.32;;;3.10;;
65558;SDS011;52203;51.998;5.140;2023-07-16T11:05:15;6.50;;;3.97;;
65558;SDS011;52203;51.998;5.140;2023-07-16T11:07:45;5.25;;;3.33;;
65558;SDS011;52203;51.998;5.140;2023-07-16T11:10:17;8.57;;;4.10;;
65558;SDS011;52203;51.998;5.140;2023-07-16T11:12:43;10.02;;;4.03;;
65558;SDS011;52203;51.998;5.140;2023-07-16T11:15:09;11.43;;;4.90;;
65558;SDS011;52203;51.998;5.140;2023-07-16T11:17:38;8.02;;;4.13;;
65558;SDS011;52203;51.998;5.140;2023-07-16T11:20:06;13.45;;;4.45;;
65558;SDS011;52203;51.998;5.140;2023-07-16T11:22:33;9.23;;;4.50;;
65558;SDS011;52203;51.998;5.140;2023-07-16T11:25:02;7.70;;;3.70;;
65558;SDS011;52203;51.998;5.140;2023-07-16T11:27:31;8.07;;;3.70;;
65558;SDS011;52203;51.998;5.140;2023-07-16T11:29:58;7.85;;;3.63;;
65558;SDS011;52203;51.998;5.140;2023-07-16T11:32:32;8.00;;;3.60;;
65558;SDS011;52203;51.998;5.140;2023-07-16T11:34:58;4.93;;;2.70;;
65558;SDS011;52203;51.998;5.140;2023-07-16T11:37:25;6.70;;;2.67;;
65558;SDS011;52203;51.998;5.140;2023-07-16T11:39:56;5.30;;;2.58;;
65558;SDS011;52203;51.998;5.140;2023-07-16T11:42:32;5.05;;;2.13;;
65558;SDS011;52203;51.998;5.140;2023-07-16T11:44:59;5.28;;;1.80;;
65558;SDS011;52203;51.998;5.140;2023-07-16T11:47:25;3.90;;;1.80;;
65558;SDS011;52203;51.998;5.140;2023-07-16T11:49:52;3.90;;;1.52;;
65558;SDS011;52203;51.998;5.140;2023-07-16T11:52:22;5.05;;;2.30;;
65558;SDS011;52203;51.998;5.140;2023-07-16T11:54:50;5.22;;;2.17;;
65558;SDS011;52203;51.998;5.140;2023-07-16T11:57:19;3.65;;;2.00;;
65558;SDS011;52203;51.998;5.140;2023-07-16T11:59:45;6.20;;;2.30;;
65558;SDS011;52203;51.998;5.140;2023-07-16T12:02:11;5.40;;;1.73;;
65558;SDS011;52203;51.998;5.140;2023-07-16T12:04:37;9.50;;;2.15;;
65558;SDS011;52203;51.998;5.140;2023-07-16T12:07:02;5.22;;;2.03;;
65558;SDS011;52203;51.998;5.140;2023-07-16T12:09:28;5.30;;;1.63;;
65558;SDS011;52203;51.998;5.140;2023-07-16T12:11:54;4.68;;;1.75;;
65558;SDS011;52203;51.998;5.140;2023-07-16T12:14:19;3.63;;;1.45;;
65558;SDS011;52203;51.998;5.140;2023-07-16T12:16:45;6.55;;;1.95;;
65558;SDS011;52203;51.998;5.140;2023-07-16T12:19:10;4.75;;;1.75;;
65558;SDS011;52203;51.998;5.140;2023-07-16T12:21:36;4.20;;;1.80;;
65558;SDS011;52203;51.998;5.140;2023-07-16T12:24:01;5.95;;;1.70;;
65558;SDS011;52203;51.998;5.140;2023-07-16T12:26:27;5.00;;;1.70;;
65558;SDS011;52203;51.998;5.140;2023-07-16T12:28:53;4.63;;;1.65;;
65558;SDS011;52203;51.998;5.140;2023-07-16T12:31:19;6.97;;;1.80;;
65558;SDS011;52203;51.998;5.140;2023-07-16T12:33:48;10.15;;;1.80;;
65558;SDS011;52203;51.998;5.140;2023-07-16T12:36:14;5.70;;;1.73;;
65558;SDS011;52203;51.998;5.140;2023-07-16T12:38:40;5.78;;;1.70;;
65558;SDS011;52203;51.998;5.140;2023-07-16T12:41:06;3.97;;;1.30;;
65558;SDS011;52203;51.998;5.140;2023-07-16T12:43:32;5.53;;;1.52;;
65558;SDS011;52203;51.998;5.140;2023-07-16T12:46:03;6.20;;;1.63;;
65558;SDS011;52203;51.998;5.140;2023-07-16T12:48:29;4.90;;;2.03;;
65558;SDS011;52203;51.998;5.140;2023-07-16T12:50:58;4.57;;;1.45;;
65558;SDS011;52203;51.998;5.140;2023-07-16T12:53:24;3.97;;;1.52;;
65558;SDS011;52203;51.998;5.140;2023-07-16T12:55:50;5.00;;;1.60;;
65558;SDS011;52203;51.998;5.140;2023-07-16T12:58:16;5.05;;;1.25;;
65558;SDS011;52203;51.998;5.140;2023-07-16T13:00:42;5.40;;;1.80;;
65558;SDS011;52203;51.998;5.140;2023-07-16T13:03:08;5.53;;;1.75;;
65558;SDS011;52203;51.998;5.140;2023-07-16T13:05:40;3.88;;;1.20;;
65558;SDS011;52203;51.998;5.140;2023-07-16T13:08:06;3.45;;;1.23;;
65558;SDS011;52203;51.998;5.140;2023-07-16T13:10:32;7.05;;;1.50;;
65558;SDS011;52203;51.998;5.140;2023-07-16T13:12:58;4.43;;;1.50;;
65558;SDS011;52203;51.998;5.140;2023-07-16T13:15:23;5.50;;;1.58;;
65558;SDS011;52203;51.998;5.140;2023-07-16T13:17:49;5.15;;;1.60;;
65558;SDS011;52203;51.998;5.140;2023-07-16T13:20:15;3.85;;;1.38;;
65558;SDS011;52203;51.998;5.140;2023-07-16T13:22:40;5.97;;;1.55;;
65558;SDS011;52203;51.998;5.140;2023-07-16T13:25:06;4.10;;;1.40;;
65558;SDS011;52203;51.998;5.140;2023-07-16T13:27:32;5.43;;;2.15;;
65558;SDS011;52203;51.998;5.140;2023-07-16T13:29:57;5.28;;;1.48;;
65558;SDS011;52203;51.998;5.140;2023-07-16T13:32:23;5.25;;;1.40;;
65558;SDS011;52203;51.998;5.140;2023-07-16T13:34:48;4.63;;;1.20;;
65558;SDS011;52203;51.998;5.140;2023-07-16T13:37:14;3.30;;;1.38;;
65558;SDS011;52203;51.998;5.140;2023-07-16T13:39:40;4.57;;;1.20;;
65558;SDS011;52203;51.998;5.140;2023-07-16T13:42:05;3.85;;;1.30;;
65558;SDS011;52203;51.998;5.140;2023-07-16T13:44:34;4.05;;;1.10;;
65558;SDS011;52203;51.998;5.140;2023-07-16T13:47:00;4.63;;;1.33;;
65558;SDS011;52203;51.998;5.140;2023-07-16T13:49:25;5.13;;;1.33;;
65558;SDS011;52203;51.998;5.140;2023-07-16T13:51:51;3.92;;;1.20;;
65558;SDS011;52203;51.998;5.140;2023-07-16T13:54:16;5.18;;;1.33;;
65558;SDS011;52203;51.998;5.140;2023-07-16T13:56:42;6.10;;;1.42;;
65558;SDS011;52203;51.998;5.140;2023-07-16T13:59:08;4.65;;;1.30;;
65558;SDS011;52203;51.998;5.140;2023-07-16T14:01:37;4.95;;;1.30;;
65558;SDS011;52203;51.998;5.140;2023-07-16T14:04:04;4.43;;;1.58;;
65558;SDS011;52203;51.998;5.140;2023-07-16T14:06:30;7.85;;;1.75;;
65558;SDS011;52203;51.998;5.140;2023-07-16T14:08:55;3.65;;;1.38;;
65558;SDS011;52203;51.998;5.140;2023-07-16T14:11:21;5.80;;;1.45;;
65558;SDS011;52203;51.998;5.140;2023-07-16T14:13:47;4.28;;;1.30;;
65558;SDS011;52203;51.998;5.140;2023-07-16T14:16:16;5.47;;;1.63;;
65558;SDS011;52203;51.998;5.140;2023-07-16T14:18:44;4.55;;;1.55;;
65558;SDS011;52203;51.998;5.140;2023-07-16T14:21:10;4.70;;;1.58;;
65558;SDS011;52203;51.998;5.140;2023-07-16T14:23:36;4.45;;;1.30;;
65558;SDS011;52203;51.998;5.140;2023-07-16T14:26:02;3.60;;;1.38;;
65558;SDS011;52203;51.998;5.140;2023-07-16T14:28:28;7.60;;;1.73;;
65558;SDS011;52203;51.998;5.140;2023-07-16T14:30:54;4.25;;;1.45;;
65558;SDS011;52203;51.998;5.140;2023-07-16T14:33:19;4.47;;;1.60;;
65558;SDS011;52203;51.998;5.140;2023-07-16T14:35:45;3.58;;;1.65;;
65558;SDS011;52203;51.998;5.140;2023-07-16T14:38:11;8.82;;;1.92;;
65558;SDS011;52203;51.998;5.140;2023-07-16T14:40:36;6.70;;;1.75;;
65558;SDS011;52203;51.998;5.140;2023-07-16T14:43:03;4.10;;;1.80;;
65558;SDS011;52203;51.998;5.140;2023-07-16T14:45:29;8.80;;;2.03;;
65558;SDS011;52203;51.998;5.140;2023-07-16T14:47:55;6.32;;;1.92;;
65558;SDS011;52203;51.998;5.140;2023-07-16T14:50:20;4.93;;;1.60;;